Time;durP1;ratioP1;P1;durP2;ratioP2;P2;SDS_P1;SDS_P2;PMS_P1;PMS_P2;Temp;Humidity;BMP_temperature;BMP_pressure;BME280_temperature;BME280_humidity;BME280_pressure;Samples;Min_cycle;Max_cycle;Signal;HPM_P1;HPM_P2
2023/01/26 00:01:52;;;;;;;77.30;24.13;;;;;;;;;;5014365;28;20049;-74
2023/01/26 00:04:18;;;;;;;85.03;25.42;;;;;;;;;;5019504;28;20120;-74
2023/01/26 00:06:44;;;;;;;78.40;24.02;;;;;;;;;;5025672;28;20042;-74
2023/01/26 00:09:13;;;;;;;74.47;21.05;;;;;;;;;;5014311;28;20492;-74
2023/01/26 00:11:39;;;;;;;76.20;22.42;;;;;;;;;;5022459;28;20431;-74
2023/01/26 00:14:05;;;;;;;77.03;23.58;;;;;;;;;;5015704;28;20401;-74
2023/01/26 00:16:31;;;;;;;75.50;23.50;;;;;;;;;;5025401;28;20132;-74
2023/01/26 00:18:57;;;;;;;84.50;23.02;;;;;;;;;;5024087;28;20085;-74
2023/01/26 00:21:24;;;;;;;78.80;22.38;;;;;;;;;;5019891;28;20393;-74
2023/01/26 00:23:50;;;;;;;71.68;22.92;;;;;;;;;;5014115;28;20046;-74
2023/01/26 00:26:18;;;;;;;76.15;22.98;;;;;;;;;;5013479;28;20042;-74
2023/01/26 00:28:44;;;;;;;75.40;22.45;;;;;;;;;;5013647;28;20362;-73
2023/01/26 00:31:15;;;;;;;83.30;23.08;;;;;;;;;;5022603;28;20464;-74
2023/01/26 00:33:41;;;;;;;94.95;23.42;;;;;;;;;;5029770;28;20033;-74
2023/01/26 00:36:07;;;;;;;87.70;23.73;;;;;;;;;;5023448;28;20041;-74
2023/01/26 00:38:33;;;;;;;94.22;24.80;;;;;;;;;;5013654;28;20040;-74
2023/01/26 00:40:59;;;;;;;87.30;23.42;;;;;;;;;;5017329;28;20384;-74
2023/01/26 00:43:25;;;;;;;96.93;25.40;;;;;;;;;;5027442;28;20046;-74
2023/01/26 00:45:51;;;;;;;83.90;23.45;;;;;;;;;;5018363;28;20060;-74
2023/01/26 00:48:17;;;;;;;81.93;23.88;;;;;;;;;;5029357;28;20042;-74
2023/01/26 00:50:43;;;;;;;84.00;24.30;;;;;;;;;;5025285;28;20429;-74
2023/01/26 00:53:10;;;;;;;69.32;22.33;;;;;;;;;;5026220;28;20049;-74
2023/01/26 00:55:36;;;;;;;82.47;22.55;;;;;;;;;;5018148;28;20042;-74
2023/01/26 00:58:04;;;;;;;79.25;23.48;;;;;;;;;;5032933;28;20041;-74
2023/01/26 01:00:30;;;;;;;67.72;21.13;;;;;;;;;;5028608;28;20045;-75
2023/01/26 01:02:57;;;;;;;80.05;23.48;;;;;;;;;;5013668;28;20045;-74
2023/01/26 01:05:24;;;;;;;70.38;21.13;;;;;;;;;;5024379;28;20049;-74
2023/01/26 01:07:50;;;;;;;69.97;23.25;;;;;;;;;;5031435;28;20045;-74
2023/01/26 01:10:16;;;;;;;75.05;22.75;;;;;;;;;;5014177;28;20054;-74
2023/01/26 01:12:42;;;;;;;86.97;24.23;;;;;;;;;;5014413;28;20038;-74
2023/01/26 01:15:08;;;;;;;84.75;23.83;;;;;;;;;;5031240;28;20041;-74
2023/01/26 01:17:36;;;;;;;78.35;23.52;;;;;;;;;;5013834;28;20050;-74
2023/01/26 01:20:06;;;;;;;73.80;22.55;;;;;;;;;;5012688;28;20072;-74
2023/01/26 01:22:32;;;;;;;67.85;22.25;;;;;;;;;;5013772;28;20060;-74
2023/01/26 01:24:58;;;;;;;80.18;22.50;;;;;;;;;;5025834;28;20091;-74
2023/01/26 01:27:25;;;;;;;82.85;24.48;;;;;;;;;;5018301;28;20049;-74
2023/01/26 01:29:51;;;;;;;79.18;23.42;;;;;;;;;;5017580;28;20125;-74
2023/01/26 01:32:17;;;;;;;76.85;22.45;;;;;;;;;;5018288;28;20041;-74
2023/01/26 01:34:43;;;;;;;77.28;22.95;;;;;;;;;;5022364;28;20568;-74
2023/01/26 01:37:09;;;;;;;89.60;25.27;;;;;;;;;;5023408;28;20073;-74
2023/01/26 01:39:35;;;;;;;69.10;21.90;;;;;;;;;;5026393;28;20068;-74
2023/01/26 01:42:01;;;;;;;72.57;23.33;;;;;;;;;;5036690;28;20080;-74
2023/01/26 01:44:27;;;;;;;76.93;24.65;;;;;;;;;;5035918;28;20052;-74
2023/01/26 01:46:58;;;;;;;77.65;22.80;;;;;;;;;;5020324;28;20041;-74
2023/01/26 01:49:26;;;;;;;75.57;23.58;;;;;;;;;;5016791;28;20064;-74
2023/01/26 01:52:07;;;;;;;73.63;23.45;;;;;;;;;;5016571;28;20045;-74
2023/01/26 01:54:53;;;;;;;65.55;21.23;;;;;;;;;;5016811;28;20046;-74
2023/01/26 01:57:27;;;;;;;71.07;22.42;;;;;;;;;;5024228;28;20046;-74
2023/01/26 02:00:07;;;;;;;63.58;21.55;;;;;;;;;;5018002;28;20045;-74
2023/01/26 02:02:34;;;;;;;78.63;24.00;;;;;;;;;;5021444;28;20084;-74
2023/01/26 02:05:05;;;;;;;78.90;23.15;;;;;;;;;;5021098;28;20072;-74
2023/01/26 02:07:32;;;;;;;73.75;23.40;;;;;;;;;;5018953;28;20065;-75
2023/01/26 02:10:17;;;;;;;65.93;21.08;;;;;;;;;;5019635;28;20456;-74
2023/01/26 02:12:43;;;;;;;77.10;23.75;;;;;;;;;;5028944;28;20049;-75
2023/01/26 02:15:10;;;;;;;83.55;23.08;;;;;;;;;;5035927;28;20438;-74
2023/01/26 02:17:36;;;;;;;77.75;22.95;;;;;;;;;;5035164;28;20495;-74
2023/01/26 02:20:21;;;;;;;69.43;22.42;;;;;;;;;;5014818;28;20104;-74
2023/01/26 02:22:47;;;;;;;70.15;22.75;;;;;;;;;;5015799;28;20045;-74
2023/01/26 02:25:23;;;;;;;90.85;27.00;;;;;;;;;;5017108;28;20054;-74
2023/01/26 02:27:49;;;;;;;;;;;;;;;;;;5030154;28;20057;-74
2023/01/26 02:30:16;;;;;;;78.33;23.63;;;;;;;;;;5019692;28;19945;-74
2023/01/26 02:32:42;;;;;;;81.97;23.75;;;;;;;;;;5021172;28;20128;-74
2023/01/26 02:35:08;;;;;;;72.40;23.83;;;;;;;;;;5034240;28;20129;-74
2023/01/26 02:37:34;;;;;;;81.70;24.25;;;;;;;;;;5015934;28;20404;-74
2023/01/26 02:40:03;;;;;;;72.95;24.08;;;;;;;;;;5025054;28;20492;-74
2023/01/26 02:42:39;;;;;;;75.28;23.30;;;;;;;;;;5024672;28;20065;-74
2023/01/26 02:45:06;;;;;;;83.18;24.48;;;;;;;;;;5017857;28;20503;-74
2023/01/26 02:47:32;;;;;;;78.10;24.15;;;;;;;;;;5019701;28;20093;-74
2023/01/26 02:49:59;;;;;;;74.03;23.95;;;;;;;;;;5030538;28;20049;-74
2023/01/26 02:52:27;;;;;;;102.22;26.92;;;;;;;;;;5034339;28;20407;-74
2023/01/26 02:57:38;;;;;;;91.57;23.88;;;;;;;;;;5035080;28;20045;-74
2023/01/26 03:00:06;;;;;;;90.18;24.33;;;;;;;;;;5035111;28;20172;-74
2023/01/26 03:02:32;;;;;;;69.10;22.63;;;;;;;;;;5031904;28;20046;-74
2023/01/26 03:04:58;;;;;;;75.22;23.20;;;;;;;;;;5015603;28;20057;-74
2023/01/26 03:07:24;;;;;;;95.25;24.85;;;;;;;;;;5022373;28;20357;-74
2023/01/26 03:09:50;;;;;;;90.35;26.17;;;;;;;;;;5025262;28;20449;-74
2023/01/26 03:12:16;;;;;;;81.57;24.15;;;;;;;;;;5015764;28;20583;-74
2023/01/26 03:14:42;;;;;;;93.75;24.80;;;;;;;;;;5015475;28;20038;-74
2023/01/26 03:17:08;;;;;;;82.97;25.75;;;;;;;;;;5029515;28;20392;-74
2023/01/26 03:27:49;;;;;;;95.53;25.95;;;;;;;;;;5022427;28;20488;-74
2023/01/26 03:30:17;;;;;;;93.75;25.17;;;;;;;;;;5018474;28;20431;-74
2023/01/26 03:32:43;;;;;;;97.07;25.75;;;;;;;;;;5028332;28;20040;-74
2023/01/26 03:35:14;;;;;;;91.70;24.25;;;;;;;;;;5025863;28;20526;-74
2023/01/26 03:37:42;;;;;;;101.22;23.92;;;;;;;;;;5035012;28;20041;-74
2023/01/26 03:56:40;;;;;;;30.67;5.53;;;;;;;;;;5017928;28;20049;-75
2023/01/26 03:59:07;;;;;;;35.15;4.65;;;;;;;;;;5019753;28;20050;-75
2023/01/26 04:01:37;;;;;;;25.67;4.85;;;;;;;;;;5028576;28;20060;-75
2023/01/26 04:09:35;;;;;;;31.55;4.60;;;;;;;;;;5014807;28;20037;-75
2023/01/26 04:12:01;;;;;;;31.48;4.55;;;;;;;;;;5015060;28;20046;-75
2023/01/26 04:22:44;;;;;;;29.52;4.40;;;;;;;;;;5029024;28;20504;-75
2023/01/26 04:25:12;;;;;;;32.05;5.55;;;;;;;;;;5033319;28;20050;-75
2023/01/26 04:27:38;;;;;;;29.15;4.97;;;;;;;;;;5029619;28;20069;-75
2023/01/26 04:30:04;;;;;;;25.05;4.75;;;;;;;;;;5049559;28;20041;-75
2023/01/26 04:32:30;;;;;;;21.08;4.47;;;;;;;;;;5017617;28;20037;-75
2023/01/26 04:34:56;;;;;;;32.03;4.13;;;;;;;;;;5031770;28;20053;-75
2023/01/26 04:37:22;;;;;;;24.73;5.32;;;;;;;;;;5035958;28;20124;-75
2023/01/26 04:39:48;;;;;;;34.58;4.70;;;;;;;;;;5018348;28;20073;-75
2023/01/26 04:42:15;;;;;;;29.00;4.60;;;;;;;;;;5022343;28;20044;-75
2023/01/26 04:44:41;;;;;;;31.17;5.15;;;;;;;;;;5027698;28;20045;-75
2023/01/26 04:47:07;;;;;;;20.40;4.47;;;;;;;;;;5033871;28;20068;-76
2023/01/26 04:49:33;;;;;;;29.90;5.10;;;;;;;;;;5028429;28;20056;-75
2023/01/26 04:51:59;;;;;;;30.63;4.28;;;;;;;;;;5031844;28;20045;-75
2023/01/26 04:54:25;;;;;;;25.70;4.68;;;;;;;;;;5024609;28;20049;-75
2023/01/26 04:56:51;;;;;;;23.02;4.30;;;;;;;;;;5013988;28;20042;-75
2023/01/26 04:59:17;;;;;;;26.67;4.90;;;;;;;;;;5013903;28;20117;-75
2023/01/26 05:01:43;;;;;;;25.48;4.47;;;;;;;;;;5016604;28;20089;-75
2023/01/26 05:04:11;;;;;;;28.23;4.68;;;;;;;;;;5018952;28;20060;-75
2023/01/26 05:06:37;;;;;;;24.60;4.47;;;;;;;;;;5033083;28;20081;-75
2023/01/26 05:09:04;;;;;;;32.10;5.00;;;;;;;;;;5028088;28;20046;-75
2023/01/26 05:11:30;;;;;;;26.52;4.95;;;;;;;;;;5021884;28;20038;-75
2023/01/26 05:13:56;;;;;;;24.52;4.97;;;;;;;;;;5013246;28;20092;-75
2023/01/26 05:16:22;;;;;;;27.40;4.70;;;;;;;;;;5013605;28;20045;-75
2023/01/26 05:18:48;;;;;;;25.73;4.80;;;;;;;;;;5016380;28;20045;-75
2023/01/26 05:21:14;;;;;;;21.83;4.32;;;;;;;;;;5027542;28;20057;-75
2023/01/26 05:23:40;;;;;;;26.85;5.43;;;;;;;;;;5032271;28;20057;-75
2023/01/26 05:26:06;;;;;;;30.88;4.63;;;;;;;;;;5024066;28;20104;-75
2023/01/26 05:28:33;;;;;;;20.27;4.30;;;;;;;;;;5028915;28;20058;-75
2023/01/26 05:30:59;;;;;;;33.17;5.50;;;;;;;;;;5019637;28;20437;-75
2023/01/26 05:33:25;;;;;;;38.15;5.75;;;;;;;;;;5014081;28;20041;-75
2023/01/26 05:35:52;;;;;;;30.00;4.60;;;;;;;;;;5020223;28;20087;-75
2023/01/26 05:38:19;;;;;;;28.98;4.80;;;;;;;;;;5032890;28;20064;-75
2023/01/26 05:40:45;;;;;;;26.33;6.30;;;;;;;;;;5029749;28;20057;-75
2023/01/26 05:43:12;;;;;;;26.67;4.38;;;;;;;;;;5022549;28;20108;-75
2023/01/26 05:45:41;;;;;;;39.28;5.63;;;;;;;;;;5015405;28;20519;-75
2023/01/26 05:48:07;;;;;;;24.65;4.05;;;;;;;;;;5013793;28;20124;-75
2023/01/26 05:50:33;;;;;;;25.58;4.90;;;;;;;;;;5019439;28;20055;-75
2023/01/26 05:53:01;;;;;;;30.38;5.18;;;;;;;;;;5014788;28;20389;-75
2023/01/26 05:55:27;;;;;;;25.48;4.90;;;;;;;;;;5013149;28;20060;-75
2023/01/26 05:57:53;;;;;;;29.27;5.18;;;;;;;;;;5023841;28;20041;-75
2023/01/26 06:00:19;;;;;;;23.83;4.82;;;;;;;;;;5026734;28;20045;-76
2023/01/26 06:02:45;;;;;;;29.75;5.05;;;;;;;;;;5016800;28;20074;-75
2023/01/26 06:05:11;;;;;;;30.33;4.50;;;;;;;;;;5013088;28;20092;-75
2023/01/26 06:07:37;;;;;;;23.02;4.85;;;;;;;;;;5021332;28;20094;-76
2023/01/26 06:10:04;;;;;;;26.95;4.70;;;;;;;;;;5031985;28;20041;-76
2023/01/26 06:12:34;;;;;;;19.30;4.70;;;;;;;;;;5029807;28;20045;-75
2023/01/26 06:15:00;;;;;;;25.35;5.15;;;;;;;;;;5015478;28;20050;-75
2023/01/26 06:17:26;;;;;;;26.70;4.90;;;;;;;;;;5018671;28;20042;-75
2023/01/26 06:19:52;;;;;;;22.45;4.85;;;;;;;;;;5021376;28;20057;-76
2023/01/26 06:22:18;;;;;;;25.38;5.07;;;;;;;;;;5036757;28;20052;-76
2023/01/26 06:24:45;;;;;;;29.30;4.82;;;;;;;;;;5026314;28;20085;-76
2023/01/26 06:27:15;;;;;;;22.17;4.15;;;;;;;;;;5020964;28;20046;-76
2023/01/26 06:29:42;;;;;;;26.38;4.82;;;;;;;;;;5015473;28;20092;-75
2023/01/26 06:32:10;;;;;;;31.02;4.95;;;;;;;;;;5019281;28;20042;-76
2023/01/26 06:34:36;;;;;;;27.00;4.53;;;;;;;;;;5028039;28;20045;-75
2023/01/26 06:37:02;;;;;;;22.40;4.30;;;;;;;;;;5034502;28;20065;-76
2023/01/26 06:39:28;;;;;;;25.35;4.95;;;;;;;;;;5029755;28;20073;-75
2023/01/26 06:41:55;;;;;;;22.75;4.45;;;;;;;;;;5031886;28;20056;-76
2023/01/26 06:44:21;;;;;;;27.02;4.68;;;;;;;;;;5035813;28;20045;-76
2023/01/26 06:46:47;;;;;;;20.75;4.00;;;;;;;;;;5023863;28;20042;-76
2023/01/26 06:49:15;;;;;;;24.05;3.97;;;;;;;;;;5015839;28;20042;-76
2023/01/26 06:51:58;;;;;;;20.88;3.50;;;;;;;;;;5014399;28;20042;-76
2023/01/26 06:54:24;;;;;;;21.17;4.35;;;;;;;;;;5014720;28;20042;-75
2023/01/26 06:56:50;;;;;;;17.13;3.97;;;;;;;;;;5020922;28;20522;-76
2023/01/26 06:59:17;;;;;;;19.85;3.95;;;;;;;;;;5032841;28;20110;-75
2023/01/26 07:01:46;;;;;;;22.80;3.80;;;;;;;;;;5014342;28;20061;-75
2023/01/26 07:04:12;;;;;;;28.95;4.85;;;;;;;;;;5014687;28;20050;-75
2023/01/26 07:06:38;;;;;;;27.55;5.55;;;;;;;;;;5016926;28;20445;-76
2023/01/26 07:09:04;;;;;;;27.67;4.50;;;;;;;;;;5018204;28;20468;-76
2023/01/26 07:11:31;;;;;;;23.15;4.65;;;;;;;;;;5019339;28;20042;-75
2023/01/26 07:13:57;;;;;;;21.42;3.90;;;;;;;;;;5014620;28;20050;-76
2023/01/26 07:16:23;;;;;;;31.35;4.95;;;;;;;;;;5014199;28;20046;-75
2023/01/26 07:18:50;;;;;;;24.80;4.45;;;;;;;;;;5016042;28;20503;-78
2023/01/26 07:21:17;;;;;;;23.48;4.00;;;;;;;;;;5024175;28;20108;-75
2023/01/26 07:23:43;;;;;;;23.38;4.47;;;;;;;;;;5019998;28;20056;-75
2023/01/26 07:26:09;;;;;;;24.05;4.10;;;;;;;;;;5024013;28;20037;-75
2023/01/26 07:28:35;;;;;;;18.90;4.03;;;;;;;;;;5029888;28;20112;-75
2023/01/26 07:31:02;;;;;;;24.13;4.88;;;;;;;;;;5022772;28;20121;-75
2023/01/26 07:33:28;;;;;;;17.88;3.70;;;;;;;;;;5031657;28;20033;-75
2023/01/26 07:35:54;;;;;;;21.30;4.15;;;;;;;;;;5015327;28;20046;-75
2023/01/26 07:38:21;;;;;;;20.83;4.18;;;;;;;;;;5013814;28;20044;-75
2023/01/26 07:40:47;;;;;;;21.80;4.07;;;;;;;;;;5027552;28;20045;-75
2023/01/26 07:43:14;;;;;;;17.58;3.47;;;;;;;;;;5038296;28;20132;-75
2023/01/26 07:45:40;;;;;;;23.20;3.50;;;;;;;;;;5022067;28;20056;-75
2023/01/26 07:48:07;;;;;;;20.08;3.78;;;;;;;;;;5017146;28;20073;-75
2023/01/26 07:50:33;;;;;;;21.20;4.15;;;;;;;;;;5015284;28;20081;-75
2023/01/26 07:53:02;;;;;;;19.42;3.65;;;;;;;;;;5015139;28;20042;-75
2023/01/26 07:55:28;;;;;;;18.88;3.40;;;;;;;;;;5018753;28;20046;-75
2023/01/26 07:57:54;;;;;;;22.42;4.10;;;;;;;;;;5025867;28;20053;-75
2023/01/26 08:00:20;;;;;;;17.90;4.32;;;;;;;;;;5030377;28;20041;-75
2023/01/26 08:02:49;;;;;;;23.38;4.20;;;;;;;;;;5015067;28;20042;-75
2023/01/26 08:05:16;;;;;;;23.65;4.30;;;;;;;;;;5030336;28;20046;-75
2023/01/26 08:07:42;;;;;;;19.58;3.78;;;;;;;;;;5018671;28;20048;-75
2023/01/26 08:10:09;;;;;;;24.63;4.60;;;;;;;;;;5014494;28;20049;-75
2023/01/26 08:12:36;;;;;;;25.38;4.80;;;;;;;;;;5013180;28;20516;-75
2023/01/26 08:15:02;;;;;;;23.75;4.35;;;;;;;;;;5018462;28;20515;-75
2023/01/26 08:17:28;;;;;;;21.80;4.38;;;;;;;;;;5014187;28;20045;-75
2023/01/26 08:19:54;;;;;;;24.17;4.40;;;;;;;;;;5021396;28;20050;-75
2023/01/26 08:22:20;;;;;;;22.58;4.20;;;;;;;;;;5028652;28;20045;-75
2023/01/26 08:24:47;;;;;;;20.02;3.72;;;;;;;;;;5017399;28;20052;-76
2023/01/26 08:27:14;;;;;;;22.05;4.20;;;;;;;;;;5031892;28;20060;-77
2023/01/26 08:29:41;;;;;;;25.98;4.82;;;;;;;;;;5033626;28;20045;-77
2023/01/26 08:32:07;;;;;;;29.63;4.60;;;;;;;;;;5033549;28;20446;-76
2023/01/26 08:34:34;;;;;;;20.02;4.25;;;;;;;;;;5033970;28;20049;-76
2023/01/26 08:37:00;;;;;;;20.65;3.95;;;;;;;;;;5030811;28;20400;-76
2023/01/26 08:39:26;;;;;;;23.40;3.65;;;;;;;;;;5026375;28;20538;-76
2023/01/26 08:41:52;;;;;;;21.17;3.97;;;;;;;;;;5014032;28;20050;-76
2023/01/26 08:44:18;;;;;;;31.85;5.32;;;;;;;;;;5029429;28;20113;-76
2023/01/26 08:46:44;;;;;;;27.02;4.03;;;;;;;;;;5032415;28;20056;-76
2023/01/26 08:49:11;;;;;;;26.75;4.20;;;;;;;;;;5032615;28;20080;-75
2023/01/26 08:51:37;;;;;;;22.40;4.07;;;;;;;;;;5032456;28;20056;-76
2023/01/26 08:54:07;;;;;;;27.23;4.32;;;;;;;;;;5014966;28;20056;-75
2023/01/26 08:56:33;;;;;;;26.02;4.45;;;;;;;;;;5024248;28;20111;-75
2023/01/26 08:58:59;;;;;;;27.08;4.97;;;;;;;;;;5032208;28;20088;-76
2023/01/26 09:01:25;;;;;;;32.60;5.22;;;;;;;;;;5023106;28;20050;-76
2023/01/26 09:03:51;;;;;;;28.88;4.30;;;;;;;;;;5018902;28;20054;-76
2023/01/26 09:06:18;;;;;;;30.00;4.75;;;;;;;;;;5028563;28;20120;-76
2023/01/26 09:08:44;;;;;;;23.42;4.10;;;;;;;;;;5028108;28;20132;-76
2023/01/26 09:11:11;;;;;;;24.83;4.30;;;;;;;;;;5026590;28;20060;-76
2023/01/26 09:13:37;;;;;;;23.27;5.28;;;;;;;;;;5019521;28;20459;-76
2023/01/26 09:16:12;;;;;;;16.77;4.40;;;;;;;;;;5030449;28;20125;-76
2023/01/26 09:18:38;;;;;;;33.80;5.03;;;;;;;;;;5026663;28;20072;-76
2023/01/26 09:21:05;;;;;;;23.42;4.38;;;;;;;;;;5020139;28;20081;-76
2023/01/26 09:23:32;;;;;;;23.40;4.32;;;;;;;;;;5014809;28;20053;-76
2023/01/26 09:25:58;;;;;;;31.38;4.30;;;;;;;;;;5023781;28;20554;-76
2023/01/26 09:28:24;;;;;;;22.58;3.95;;;;;;;;;;5033419;28;20077;-76
2023/01/26 09:30:50;;;;;;;20.30;3.95;;;;;;;;;;5033328;28;20037;-76
2023/01/26 09:33:16;;;;;;;21.95;4.38;;;;;;;;;;5018163;28;20046;-76
2023/01/26 09:35:42;;;;;;;18.05;3.80;;;;;;;;;;5022257;28;20038;-76
2023/01/26 09:38:08;;;;;;;22.80;4.22;;;;;;;;;;5024208;28;20041;-76
2023/01/26 09:40:43;;;;;;;18.85;4.15;;;;;;;;;;5024421;28;20136;-76
2023/01/26 09:43:09;;;;;;;19.75;4.75;;;;;;;;;;5033381;28;20409;-76
2023/01/26 09:45:46;;;;;;;21.90;4.45;;;;;;;;;;5016927;28;20568;-76
2023/01/26 09:48:35;;;;;;;17.75;3.60;;;;;;;;;;5017222;28;20049;-76
2023/01/26 09:51:18;;;;;;;19.98;4.07;;;;;;;;;;5016881;28;20061;-76
2023/01/26 09:53:53;;;;;;;20.90;3.92;;;;;;;;;;5020764;28;20129;-76
2023/01/26 09:56:20;;;;;;;14.57;3.65;;;;;;;;;;5032700;28;20108;-76
2023/01/26 09:59:25;;;;;;;20.45;3.95;;;;;;;;;;5024614;28;20124;-81
2023/01/26 10:01:56;;;;;;;15.73;3.60;;;;;;;;;;4956941;29;20051;-77
2023/01/26 10:04:27;;;;;;;18.17;3.78;;;;;;;;;;4955742;29;20103;-76
2023/01/26 10:06:54;;;;;;;25.95;3.78;;;;;;;;;;4956535;29;20075;-76
2023/01/26 10:09:28;;;;;;;17.35;3.20;;;;;;;;;;4956768;29;20062;-76
2023/01/26 10:11:59;;;;;;;19.10;3.80;;;;;;;;;;4956084;29;20462;-76
2023/01/26 10:14:29;;;;;;;16.13;3.22;;;;;;;;;;4951536;29;20052;-76
2023/01/26 10:16:56;;;;;;;16.60;3.20;;;;;;;;;;4942644;29;20050;-76
2023/01/26 10:19:34;;;;;;;13.05;2.95;;;;;;;;;;4955684;29;20051;-76
2023/01/26 10:22:04;;;;;;;14.15;3.22;;;;;;;;;;4955163;29;20047;-76
2023/01/26 10:24:33;;;;;;;15.00;3.38;;;;;;;;;;4956434;29;20082;-77
2023/01/26 10:27:00;;;;;;;17.73;3.05;;;;;;;;;;4923108;29;20550;-77
2023/01/26 10:29:26;;;;;;;18.70;3.25;;;;;;;;;;4937502;29;20051;-80
2023/01/26 10:31:52;;;;;;;13.00;3.20;;;;;;;;;;4960112;28;20045;-78
2023/01/26 10:34:27;;;;;;;15.00;3.42;;;;;;;;;;5018817;28;20408;-76
2023/01/26 10:37:00;;;;;;;19.13;3.85;;;;;;;;;;5025656;28;20511;-76
2023/01/26 10:39:26;;;;;;;15.30;3.20;;;;;;;;;;5033874;28;20118;-76
2023/01/26 10:41:59;;;;;;;15.57;3.75;;;;;;;;;;5034122;28;20041;-76
2023/01/26 10:44:36;;;;;;;17.83;3.42;;;;;;;;;;5026211;28;20038;-76
2023/01/26 10:47:06;;;;;;;16.60;3.17;;;;;;;;;;5030121;28;20079;-76
2023/01/26 10:49:33;;;;;;;20.88;3.92;;;;;;;;;;5031234;28;20037;-77
2023/01/26 10:52:07;;;;;;;14.70;3.40;;;;;;;;;;5035209;28;20050;-76
2023/01/26 10:54:35;;;;;;;16.52;3.25;;;;;;;;;;5021801;28;20054;-76
2023/01/26 10:57:03;;;;;;;16.63;3.45;;;;;;;;;;5024858;28;20124;-76
2023/01/26 10:59:31;;;;;;;19.45;3.67;;;;;;;;;;5016116;28;20045;-76
2023/01/26 11:02:16;;;;;;;16.40;3.45;;;;;;;;;;5026456;28;20045;-77
2023/01/26 11:05:01;;;;;;;18.13;3.35;;;;;;;;;;5019352;28;20096;-80
2023/01/26 11:07:28;;;;;;;15.07;3.90;;;;;;;;;;5015741;28;20060;-76
2023/01/26 11:09:55;;;;;;;19.55;4.05;;;;;;;;;;5028291;28;20075;-77
2023/01/26 11:12:24;;;;;;;20.23;3.83;;;;;;;;;;5030903;28;20088;-77
2023/01/26 11:15:06;;;;;;;21.10;3.28;;;;;;;;;;5035721;28;20084;-76
2023/01/26 11:17:42;;;;;;;15.88;3.42;;;;;;;;;;5029024;28;20037;-76
2023/01/26 11:20:27;;;;;;;24.05;3.75;;;;;;;;;;5049509;28;20183;-77
2023/01/26 11:23:08;;;;;;;19.00;3.15;;;;;;;;;;5035307;28;20492;-77
2023/01/26 11:25:38;;;;;;;15.90;3.28;;;;;;;;;;5027021;28;20045;-77
2023/01/26 11:28:29;;;;;;;17.08;3.30;;;;;;;;;;5034844;28;20041;-77
2023/01/26 11:31:02;;;;;;;15.68;3.50;;;;;;;;;;5033162;28;20052;-76
2023/01/26 11:33:47;;;;;;;17.40;2.88;;;;;;;;;;5026072;28;20038;-76
2023/01/26 11:36:21;;;;;;;10.73;2.88;;;;;;;;;;5021300;28;20504;-77
2023/01/26 11:38:57;;;;;;;12.43;2.60;;;;;;;;;;5019098;28;20046;-76
2023/01/26 11:41:28;;;;;;;13.83;3.77;;;;;;;;;;5041563;28;20046;-77
2023/01/26 11:44:05;;;;;;;9.98;2.78;;;;;;;;;;5010747;28;20504;-76
2023/01/26 11:46:44;;;;;;;13.55;3.03;;;;;;;;;;5024242;28;20057;-76
2023/01/26 11:49:23;;;;;;;12.48;2.80;;;;;;;;;;5026705;28;20045;-76
2023/01/26 11:52:00;;;;;;;16.40;3.40;;;;;;;;;;5028635;28;20038;-76
2023/01/26 11:54:29;;;;;;;13.25;3.17;;;;;;;;;;5016082;28;20042;-76
2023/01/26 11:57:04;;;;;;;12.32;2.35;;;;;;;;;;5020681;28;20050;-75
2023/01/26 11:59:33;;;;;;;12.73;2.63;;;;;;;;;;5027069;28;20049;-76
2023/01/26 12:02:05;;;;;;;6.53;2.45;;;;;;;;;;5027362;28;20037;-76
2023/01/26 12:04:32;;;;;;;7.75;2.78;;;;;;;;;;5021035;28;20117;-76
2023/01/26 12:07:04;;;;;;;14.73;3.13;;;;;;;;;;5027348;28;20532;-76
2023/01/26 12:09:42;;;;;;;13.18;2.90;;;;;;;;;;5021833;28;20121;-76
2023/01/26 12:12:08;;;;;;;8.05;2.28;;;;;;;;;;5021818;28;20128;-76
2023/01/26 12:14:48;;;;;;;15.43;3.35;;;;;;;;;;5020142;28;20129;-76
2023/01/26 12:17:29;;;;;;;13.60;2.78;;;;;;;;;;5014445;28;20109;-76
2023/01/26 12:20:03;;;;;;;7.65;2.60;;;;;;;;;;5021343;28;20053;-76
2023/01/26 12:22:32;;;;;;;8.55;2.20;;;;;;;;;;5032855;28;20561;-76
2023/01/26 12:25:02;;;;;;;13.35;2.42;;;;;;;;;;5033467;28;20041;-76
2023/01/26 12:27:33;;;;;;;11.07;3.13;;;;;;;;;;5033879;28;20051;-76
2023/01/26 12:30:06;;;;;;;12.80;2.47;;;;;;;;;;5021005;28;20046;-76
2023/01/26 12:32:32;;;;;;;11.90;2.70;;;;;;;;;;5033635;28;20048;-76
2023/01/26 12:34:58;;;;;;;10.43;2.63;;;;;;;;;;5025387;28;20095;-76
2023/01/26 12:37:28;;;;;;;13.57;2.40;;;;;;;;;;5031893;28;20039;-76
2023/01/26 12:40:19;;;;;;;11.63;2.60;;;;;;;;;;5022400;28;20056;-76
2023/01/26 12:42:48;;;;;;;11.32;2.83;;;;;;;;;;5023635;28;20041;-76
2023/01/26 12:45:34;;;;;;;11.30;2.80;;;;;;;;;;5032644;28;20049;-76
2023/01/26 12:48:12;;;;;;;11.23;2.63;;;;;;;;;;5030180;28;20045;-76
2023/01/26 12:51:08;;;;;;;13.77;3.10;;;;;;;;;;5016719;28;20045;-76
2023/01/26 12:53:38;;;;;;;13.18;3.03;;;;;;;;;;4997680;28;20534;-76
2023/01/26 12:56:08;;;;;;;9.20;2.58;;;;;;;;;;5015762;28;20053;-76
2023/01/26 12:58:45;;;;;;;14.90;2.70;;;;;;;;;;5033216;28;20473;-76
2023/01/26 13:01:13;;;;;;;8.90;2.60;;;;;;;;;;5023703;28;20083;-76
2023/01/26 13:03:50;;;;;;;14.18;2.95;;;;;;;;;;5032521;28;20048;-76
2023/01/26 13:06:17;;;;;;;17.60;3.00;;;;;;;;;;5030109;28;20053;-75
2023/01/26 13:08:46;;;;;;;10.02;2.40;;;;;;;;;;5027669;28;20045;-76
2023/01/26 13:11:32;;;;;;;9.60;2.50;;;;;;;;;;5024792;28;20045;-76
2023/01/26 13:13:58;;;;;;;12.23;2.70;;;;;;;;;;5033177;28;20041;-76
2023/01/26 13:16:31;;;;;;;13.60;3.38;;;;;;;;;;5033190;28;20052;-76
2023/01/26 13:18:58;;;;;;;12.40;2.63;;;;;;;;;;5023827;28;20046;-76
2023/01/26 13:21:41;;;;;;;10.05;2.63;;;;;;;;;;5026380;28;20087;-76
2023/01/26 13:24:16;;;;;;;6.03;2.45;;;;;;;;;;5028025;28;20049;-76
2023/01/26 13:26:46;;;;;;;8.20;2.45;;;;;;;;;;5050044;28;20037;-76
2023/01/26 13:29:24;;;;;;;10.95;2.17;;;;;;;;;;5037209;28;20056;-76
2023/01/26 13:31:50;;;;;;;14.02;2.80;;;;;;;;;;5036667;28;20076;-76
2023/01/26 13:34:19;;;;;;;13.73;2.47;;;;;;;;;;5037992;28;20396;-76
2023/01/26 13:36:46;;;;;;;9.23;2.70;;;;;;;;;;5029033;28;20038;-76
2023/01/26 13:39:20;;;;;;;7.97;2.22;;;;;;;;;;5030491;28;20183;-76
2023/01/26 13:41:46;;;;;;;11.55;2.50;;;;;;;;;;5019028;28;20065;-76
2023/01/26 13:44:16;;;;;;;8.15;1.90;;;;;;;;;;5034376;28;20033;-76
2023/01/26 13:46:49;;;;;;;10.45;2.67;;;;;;;;;;5027554;28;20041;-76
2023/01/26 13:49:26;;;;;;;9.45;2.58;;;;;;;;;;5031931;28;20037;-76
2023/01/26 13:51:52;;;;;;;9.88;2.60;;;;;;;;;;5030574;28;20079;-76
2023/01/26 13:54:18;;;;;;;11.95;2.63;;;;;;;;;;5025348;28;20438;-77
2023/01/26 13:57:20;;;;;;;15.38;2.65;;;;;;;;;;5029330;28;20455;-76
2023/01/26 13:59:53;;;;;;;10.55;2.80;;;;;;;;;;4972484;28;20150;-76
2023/01/26 14:02:27;;;;;;;14.85;2.55;;;;;;;;;;4997099;28;20077;-76
2023/01/26 14:04:56;;;;;;;11.45;2.70;;;;;;;;;;4992082;28;20096;-77
2023/01/26 14:07:34;;;;;;;9.93;2.83;;;;;;;;;;4959109;28;20042;-77
2023/01/26 14:10:01;;;;;;;14.95;3.42;;;;;;;;;;4991333;28;20126;-76
2023/01/26 14:12:30;;;;;;;15.48;3.03;;;;;;;;;;4987174;28;20046;-76
2023/01/26 14:14:59;;;;;;;12.48;2.80;;;;;;;;;;4986068;28;20057;-76
2023/01/26 14:17:28;;;;;;;11.15;2.60;;;;;;;;;;5002934;28;20057;-77
2023/01/26 14:19:54;;;;;;;12.90;3.13;;;;;;;;;;4997261;28;20074;-76
2023/01/26 14:22:20;;;;;;;12.48;3.03;;;;;;;;;;4984505;28;20043;-77
2023/01/26 14:24:50;;;;;;;15.55;3.58;;;;;;;;;;4988815;28;20067;-77
2023/01/26 14:27:36;;;;;;;14.45;2.97;;;;;;;;;;4983133;28;20494;-76
2023/01/26 14:30:20;;;;;;;13.95;3.10;;;;;;;;;;4993691;28;20046;-76
2023/01/26 14:32:47;;;;;;;13.98;3.35;;;;;;;;;;4998328;28;20046;-77
2023/01/26 14:35:21;;;;;;;13.80;3.28;;;;;;;;;;5024647;28;20152;-76
2023/01/26 14:37:48;;;;;;;9.00;3.00;;;;;;;;;;5028004;28;20045;-76
2023/01/26 14:40:17;;;;;;;11.00;3.03;;;;;;;;;;5028519;28;20041;-76
2023/01/26 14:42:43;;;;;;;15.60;2.92;;;;;;;;;;5030716;28;20092;-76
2023/01/26 14:45:13;;;;;;;11.27;2.58;;;;;;;;;;5028347;28;20041;-78
2023/01/26 14:47:40;;;;;;;14.02;3.20;;;;;;;;;;5032012;28;20121;-76
2023/01/26 14:50:10;;;;;;;16.08;3.08;;;;;;;;;;5019694;28;20041;-76
2023/01/26 14:52:38;;;;;;;17.80;4.32;;;;;;;;;;5036121;28;20049;-76
2023/01/26 14:55:13;;;;;;;20.40;3.70;;;;;;;;;;5022851;28;20061;-76
2023/01/26 14:57:39;;;;;;;18.55;3.30;;;;;;;;;;5035243;28;20124;-76
2023/01/26 15:00:08;;;;;;;17.48;3.78;;;;;;;;;;5015555;28;20104;-76
2023/01/26 15:02:38;;;;;;;18.08;3.40;;;;;;;;;;5031895;28;20161;-76
2023/01/26 15:05:04;;;;;;;18.88;3.53;;;;;;;;;;5030762;28;20182;-76
2023/01/26 15:07:48;;;;;;;18.10;3.17;;;;;;;;;;5035721;28;20124;-76
2023/01/26 15:10:30;;;;;;;12.93;3.22;;;;;;;;;;5026002;28;20038;-76
2023/01/26 15:13:01;;;;;;;16.33;3.20;;;;;;;;;;5027775;28;20074;-76
2023/01/26 15:15:28;;;;;;;17.20;3.35;;;;;;;;;;5022893;28;20037;-77
2023/01/26 15:18:05;;;;;;;13.88;2.92;;;;;;;;;;5021482;28;20112;-77
2023/01/26 15:20:32;;;;;;;12.77;2.72;;;;;;;;;;5028744;28;20053;-76
2023/01/26 15:22:58;;;;;;;15.48;3.65;;;;;;;;;;5035196;28;20042;-77